Metar z pełnej godziny Komunikat METAR ze strony awiacja.imgw.pl Metar G00 EPWA METAR EPWA 271300Z 25008KT 9999 FEW010 BKN023 02/01 Q0995 TEMPO BKN012=